Abingdon, United Kingdom
Current Conditions -  °F | °C
As of 12:50 PM on Friday 24 Oct 2014 (Local Time) from EGUB Reporting Station
Broken Clouds Broken Clouds  
Wind Chill: 16°   Ceiling: 1200
Heat Index: 16°   Visibility: 6mi
Dew Point: 13°   Wind: 10mph
Humidity: 82%   Direction: 170°S
Pressure: 29.94"   Gusts: NA
Location:  51.67°N, 1.29°W
Report Text: EGUB 241150Z 17009KT 9999 BKN012 BKN040 16/13 Q1014 GRN TEMPO 7000 RA GRN
Loading
Personal Weather Stations






























Interactive Weather Map
Tropical Storm Tracking
New forecast layout! Learn more

10-Day Weather Forecast

Advertisements
Track Severe Weather on mobile